Time;durP1;ratioP1;P1;durP2;ratioP2;P2;SDS_P1;SDS_P2;PMS_P1;PMS_P2;Temp;Humidity;BMP_temperature;BMP_pressure;BME280_temperature;BME280_humidity;BME280_pressure;Samples;Min_cycle;Max_cycle;Signal;HPM_P1;HPM_P2
2022/11/04 00:01:30;;;;;;;;;1.00;1.00;;;;;13.25;68.75;99997.81;4923812;28;45403;-80
2022/11/04 00:03:56;;;;;;;;;2.75;1.00;;;;;13.27;68.96;99993.22;4922164;28;45965;-81
2022/11/04 00:06:21;;;;;;;;;0.00;0.00;;;;;13.29;69.01;99994.00;4922039;28;45293;-81
2022/11/04 00:08:51;;;;;;;;;0.00;0.00;;;;;13.31;68.74;99992.13;4937899;28;45583;-81
2022/11/04 00:14:02;;;;;;;;;2.25;0.75;;;;;13.33;68.57;99979.53;4939330;28;45816;-81
2022/11/04 00:19:11;;;;;;;;;2.00;1.00;;;;;13.32;68.96;99958.19;4925513;28;45315;-81
2022/11/04 00:29:48;;;;;;;;;1.00;1.00;;;;;13.24;69.13;99938.94;4933259;28;45459;-81
2022/11/04 00:34:58;;;;;;;;;1.50;1.00;;;;;13.26;69.16;99950.44;4928574;28;45680;-81
2022/11/04 00:37:23;;;;;;;;;3.00;0.00;;;;;13.29;69.04;99950.28;4935208;28;45304;-81
2022/11/04 00:39:48;;;;;;;;;2.50;1.00;;;;;13.26;69.35;99951.28;4930637;28;45492;-74
2022/11/04 00:42:14;;;;;;;;;2.00;1.00;;;;;13.24;69.35;99944.31;4937778;28;45521;-74
2022/11/04 00:44:39;;;;;;;;;1.00;1.00;;;;;13.26;69.50;99953.97;4930210;28;46012;-73
2022/11/04 00:47:04;;;;;;;;;2.50;0.00;;;;;13.27;69.35;99946.81;4925394;28;45326;-74
2022/11/04 00:49:30;;;;;;;;;2.00;1.00;;;;;13.26;69.48;99945.94;4938244;28;45426;-74
2022/11/04 00:51:55;;;;;;;;;2.00;0.50;;;;;13.28;69.33;99952.09;4911476;28;45451;-74
2022/11/04 00:54:21;;;;;;;;;3.75;1.00;;;;;13.26;69.26;99951.28;4939393;28;46787;-81
2022/11/04 00:56:47;;;;;;;;;3.75;1.00;;;;;13.31;69.21;99957.28;4944001;28;45353;-80
2022/11/04 00:59:13;;;;;;;;;3.00;1.50;;;;;13.18;69.29;99934.81;4930251;28;45466;-81
2022/11/04 01:01:39;;;;;;;;;1.00;1.00;;;;;13.29;69.40;99948.44;4927641;28;45389;-81
2022/11/04 01:04:04;;;;;;;;;2.00;0.00;;;;;13.29;69.37;99945.75;4924894;28;45324;-81
2022/11/04 01:06:30;;;;;;;;;1.25;0.00;;;;;13.28;69.48;99927.97;4907915;28;47273;-81
2022/11/04 01:08:57;;;;;;;;;1.75;0.75;;;;;13.31;69.48;99932.28;4927664;28;45367;-81
2022/11/04 01:11:23;;;;;;;;;2.25;1.25;;;;;13.22;69.38;99912.22;4930644;28;46856;-81
2022/11/04 01:13:51;;;;;;;;;2.00;1.00;;;;;13.29;69.68;99913.59;4931326;28;45500;-81
2022/11/04 01:16:17;;;;;;;;;2.00;1.50;;;;;13.32;69.33;99916.16;4924751;28;45351;-81
2022/11/04 01:18:43;;;;;;;;;2.00;2.00;;;;;13.36;69.68;99918.66;4924764;28;45259;-81
2022/11/04 01:21:12;;;;;;;;;0.00;0.00;;;;;13.24;69.55;99899.59;4930860;28;45336;-81
2022/11/04 01:23:37;;;;;;;;;1.00;1.00;;;;;13.33;69.66;99914.31;4941394;28;45563;-81
2022/11/04 01:26:12;;;;;;;;;0.75;0.00;;;;;13.31;69.61;99916.19;4923903;28;45446;-81
2022/11/04 01:28:38;;;;;;;;;2.00;0.50;;;;;13.31;69.63;99914.41;4924573;28;45323;-81
2022/11/04 01:31:13;;;;;;;;;0.00;0.00;;;;;13.31;69.95;99914.41;4927949;28;45343;-81
2022/11/04 01:33:38;;;;;;;;;4.50;0.50;;;;;13.28;69.69;99922.63;4939309;28;46594;-81
2022/11/04 01:36:05;;;;;;;;;2.25;0.00;;;;;13.23;70.03;99913.97;4936958;28;45644;-81
2022/11/04 01:38:31;;;;;;;;;2.50;0.75;;;;;13.26;69.98;99913.78;4926148;28;45244;-81
2022/11/04 01:40:57;;;;;;;;;2.00;2.00;;;;;13.19;70.05;99903.50;4909597;28;45461;-81
2022/11/04 01:43:44;;;;;;;;;2.00;0.00;;;;;13.26;69.88;99908.41;4926413;28;45370;-81
2022/11/04 01:46:17;;;;;;;;;3.50;0.50;;;;;13.26;69.72;99908.41;4924269;28;45381;-81
2022/11/04 01:48:43;;;;;;;;;0.00;0.00;;;;;13.24;69.65;99894.25;4932348;28;45353;-81
2022/11/04 01:51:08;;;;;;;;;0.00;0.00;;;;;13.25;69.97;99900.50;4939219;28;45421;-81
2022/11/04 01:53:38;;;;;;;;;1.25;1.00;;;;;13.23;69.89;99897.88;4908251;28;46007;-81
2022/11/04 01:56:10;;;;;;;;;1.00;1.00;;;;;13.28;69.51;99895.81;4925884;28;45423;-81
2022/11/04 01:58:39;;;;;;;;;0.50;0.50;;;;;13.30;69.61;99882.31;4933742;28;45291;-81
2022/11/04 02:01:07;;;;;;;;;5.25;2.75;;;;;13.20;69.48;99868.59;4926445;28;45505;-74
2022/11/04 02:03:44;;;;;;;;;2.00;2.00;;;;;13.32;69.59;99886.66;4939235;28;46219;-74
2022/11/04 02:06:10;;;;;;;;;0.75;0.00;;;;;13.29;69.49;99881.44;4936555;28;46735;-74
2022/11/04 02:08:37;;;;;;;;;0.75;0.75;;;;;13.25;69.60;99852.25;4927060;28;45455;-81
2022/11/04 02:11:03;;;;;;;;;1.00;1.00;;;;;13.28;69.48;99863.66;4910701;28;45793;-81
2022/11/04 02:13:34;;;;;;;;;1.00;1.00;;;;;13.24;69.35;99883.53;4932979;28;45347;-81
2022/11/04 02:16:11;;;;;;;;;0.00;0.00;;;;;13.26;69.67;99881.59;4923612;28;45515;-81
2022/11/04 02:18:46;;;;;;;;;2.00;0.25;;;;;13.27;69.32;99878.00;4920493;28;45583;-81
2022/11/04 02:21:14;;;;;;;;;1.50;0.00;;;;;13.24;69.74;99859.41;4918807;28;46085;-81
2022/11/04 02:24:08;;;;;;;;;3.00;1.00;;;;;13.25;69.61;99862.97;4941784;28;45670;-81
2022/11/04 02:26:51;;;;;;;;;0.00;0.00;;;;;13.24;69.52;99870.13;4923635;28;45268;-81
2022/11/04 02:29:34;;;;;;;;;0.50;0.50;;;;;13.24;69.34;99864.75;4922221;28;45336;-81
2022/11/04 02:32:13;;;;;;;;;1.75;0.75;;;;;13.24;69.46;99864.75;4909616;28;45268;-81
2022/11/04 02:35:01;;;;;;;;;1.00;0.00;;;;;13.24;69.48;99867.44;4926994;28;46374;-81
2022/11/04 02:37:44;;;;;;;;;1.50;1.00;;;;;13.26;69.41;99876.25;4942019;28;45825;-81
2022/11/04 02:40:40;;;;;;;;;0.25;0.00;;;;;13.19;69.21;99863.31;4940779;28;45347;-74
2022/11/04 02:43:21;;;;;;;;;1.00;0.00;;;;;13.11;69.53;99859.25;4940075;28;45294;-73
2022/11/04 02:45:51;;;;;;;;;0.00;0.00;;;;;13.14;69.42;99851.03;4923465;28;46159;-74
2022/11/04 02:48:27;;;;;;;;;0.00;0.00;;;;;13.23;69.41;99876.44;4909836;28;45552;-74
2022/11/04 02:50:57;;;;;;;;;2.00;0.00;;;;;13.25;69.59;99876.38;4929941;28;45344;-73
2022/11/04 02:53:29;;;;;;;;;1.75;0.75;;;;;13.23;69.74;99871.09;4937100;28;45341;-74
2022/11/04 02:55:57;;;;;;;;;1.00;0.00;;;;;13.23;69.66;99870.22;4940107;28;45470;-74
2022/11/04 02:58:29;;;;;;;;;1.00;1.00;;;;;13.20;69.75;99844.47;4936263;28;45599;-74
2022/11/04 03:00:58;;;;;;;;;0.00;0.00;;;;;13.22;69.77;99844.38;4927235;28;45209;-74
2022/11/04 03:03:33;;;;;;;;;2.00;1.00;;;;;13.28;69.64;99844.88;4927223;28;45517;-81
2022/11/04 03:06:01;;;;;;;;;4.00;1.00;;;;;13.29;69.60;99843.91;4922855;28;46024;-81
2022/11/04 03:08:34;;;;;;;;;1.00;0.00;;;;;13.13;69.68;99816.28;4993774;23;45604;-80
2022/11/04 03:11:12;;;;;;;;;0.00;0.00;;;;;13.08;69.56;99813.00;4992273;28;45471;-80
2022/11/04 03:13:45;;;;;;;;;1.00;0.00;;;;;13.24;69.62;99840.63;5000617;28;45481;-79
2022/11/04 03:16:16;;;;;;;;;1.25;1.00;;;;;12.89;69.38;99781.06;4979639;28;48175;-79
2022/11/04 03:19:03;;;;;;;;;0.25;0.00;;;;;13.21;69.70;99829.25;4979934;28;45484;-79
2022/11/04 03:21:34;;;;;;;;;1.00;0.00;;;;;12.97;69.16;99795.72;4986751;28;45529;-79
2022/11/04 03:24:01;;;;;;;;;2.00;0.00;;;;;13.05;69.64;99805.16;4995465;28;45321;-79
2022/11/04 03:27:01;;;;;;;;;0.25;0.00;;;;;13.05;69.87;99791.78;4987307;28;47591;-79
2022/11/04 03:29:36;;;;;;;;;0.00;0.00;;;;;13.04;70.15;99785.53;4973134;28;45381;-79
2022/11/04 03:32:39;;;;;;;;;0.00;0.00;;;;;13.19;69.74;99813.25;4985329;28;45563;-80
2022/11/04 03:35:06;;;;;;;;;2.75;1.00;;;;;13.00;69.52;99786.66;4988257;28;45619;-79
2022/11/04 03:37:32;;;;;;;;;0.75;0.75;;;;;13.08;69.56;99789.78;4998108;28;46567;-79
2022/11/04 03:39:58;;;;;;;;;0.25;0.00;;;;;13.14;69.61;99802.78;4986028;28;45476;-79
2022/11/04 03:42:25;;;;;;;;;0.75;0.25;;;;;13.06;69.59;99780.09;4990249;28;45409;-80
2022/11/04 03:44:53;;;;;;;;;0.75;0.50;;;;;13.21;69.61;99802.44;4980881;28;45530;-79
2022/11/04 03:47:28;;;;;;;;;1.00;0.00;;;;;13.09;69.07;99782.59;4988006;28;46127;-80
2022/11/04 03:50:20;;;;;;;;;0.00;0.00;;;;;13.30;69.18;99809.97;4995078;28;45283;-79
2022/11/04 03:52:45;;;;;;;;;0.75;0.75;;;;;13.29;69.41;99808.22;4988171;28;45616;-79
2022/11/04 03:55:11;;;;;;;;;2.75;0.00;;;;;13.31;69.23;99809.00;4985443;28;45313;-79
2022/11/04 03:57:55;;;;;;;;;0.00;0.00;;;;;13.24;69.02;99799.59;5006720;28;46397;-80
2022/11/04 04:00:22;;;;;;;;;0.25;0.25;;;;;13.12;69.02;99779.72;4987382;28;45300;-79
2022/11/04 04:03:05;;;;;;;;;0.50;0.00;;;;;13.29;69.03;99819.78;4991852;28;45392;-79
2022/11/04 04:05:49;;;;;;;;;0.00;0.00;;;;;13.26;69.08;99811.94;4985794;28;45324;-79
2022/11/04 04:08:27;;;;;;;;;0.00;0.00;;;;;13.25;69.24;99809.38;4987583;28;48378;-79
2022/11/04 04:11:18;;;;;;;;;2.00;1.00;;;;;13.26;69.35;99827.16;4993881;28;45325;-79
2022/11/04 04:14:11;;;;;;;;;0.00;0.00;;;;;13.26;68.92;99829.84;4989656;28;46033;-79
2022/11/04 04:16:42;;;;;;;;;0.00;0.00;;;;;13.27;69.06;99824.38;4979937;28;45617;-79
2022/11/04 04:19:15;;;;;;;;;0.00;0.00;;;;;13.12;68.99;99791.31;4992156;28;46074;-79
2022/11/04 04:21:57;;;;;;;;;1.25;0.75;;;;;13.17;68.85;99796.41;5001406;28;45498;-80
2022/11/04 04:27:30;;;;;;;;;0.50;0.00;;;;;13.28;69.41;99820.78;4992185;28;45411;-79
2022/11/04 04:29:58;;;;;;;;;0.00;0.00;;;;;13.09;68.84;99794.16;4990377;28;46380;-79
2022/11/04 04:32:26;;;;;;;;;0.00;0.00;;;;;13.27;69.06;99827.06;4995009;28;45588;-79
2022/11/04 04:35:40;;;;;;;;;0.00;0.00;;;;;13.14;69.08;99808.16;4995216;28;45470;-79
2022/11/04 04:37:40;;;;;;;;;0.00;0.00;;;;;13.20;68.98;99816.78;4998038;28;45849;-80
2022/11/04 04:45:42;;;;;;;;;2.00;1.00;;;;;13.16;68.75;99814.31;4998499;28;45589;-79
2022/11/04 04:48:11;;;;;;;;;0.50;0.00;;;;;13.05;69.04;99799.81;4998015;28;45445;-79
2022/11/04 04:50:41;;;;;;;;;0.00;0.00;;;;;13.04;68.92;99798.06;4982703;28;48084;-79
2022/11/04 04:53:06;;;;;;;;;0.00;0.00;;;;;13.16;68.57;99800.03;4983527;28;45416;-79
2022/11/04 04:55:32;;;;;;;;;0.00;0.00;;;;;13.07;68.83;99789.84;4986852;28;45514;-79
2022/11/04 04:57:57;;;;;;;;;2.00;0.00;;;;;13.02;68.75;99791.94;4981769;28;45416;-79
2022/11/04 05:00:23;;;;;;;;;0.00;0.00;;;;;13.22;68.69;99820.25;4978629;28;46103;-80
2022/11/04 05:02:48;;;;;;;;;1.00;0.00;;;;;13.10;68.82;99811.13;4987410;28;45392;-80
2022/11/04 05:05:14;;;;;;;;;0.25;0.25;;;;;13.08;68.59;99813.00;4991496;28;45393;-79
2022/11/04 05:07:41;;;;;;;;;0.25;0.00;;;;;13.13;68.30;99805.56;4997418;28;45369;-79
2022/11/04 05:10:09;;;;;;;;;1.50;0.00;;;;;13.13;68.62;99811.81;4989603;28;46396;-79
2022/11/04 05:15:19;;;;;;;;;2.00;0.00;;;;;13.07;68.51;99792.53;4989402;28;45592;-79
2022/11/04 05:17:44;;;;;;;;;1.25;0.00;;;;;13.22;68.67;99822.94;4995927;28;45384;-79
2022/11/04 05:20:10;;;;;;;;;0.50;0.00;;;;;13.12;68.70;99810.06;4986511;28;46255;-79
2022/11/04 05:22:36;;;;;;;;;0.00;0.00;;;;;13.14;68.43;99801.94;4998034;28;45528;-79
2022/11/04 05:25:01;;;;;;;;;0.00;0.00;;;;;12.98;68.52;99792.13;4989245;28;45376;-79
2022/11/04 05:27:26;;;;;;;;;1.00;0.00;;;;;13.12;68.80;99820.78;4987210;28;45421;-79
2022/11/04 05:29:52;;;;;;;;;2.75;1.00;;;;;13.08;68.54;99803.16;4988993;28;46522;-79
2022/11/04 05:32:17;;;;;;;;;0.00;0.00;;;;;13.05;68.27;99799.81;4996891;28;45445;-79
2022/11/04 05:34:42;;;;;;;;;0.00;0.00;;;;;13.05;68.62;99802.47;4988953;28;45672;-79
2022/11/04 05:37:08;;;;;;;;;1.75;0.75;;;;;13.08;68.78;99802.28;4995125;28;45454;-79
2022/11/04 05:39:33;;;;;;;;;3.75;0.50;;;;;13.12;68.71;99809.22;4993687;28;45649;-79
2022/11/04 05:41:59;;;;;;;;;0.75;0.75;;;;;13.12;68.04;99809.22;4980702;28;45428;-79
2022/11/04 05:44:25;;;;;;;;;1.00;0.00;;;;;13.28;68.55;99838.63;4994277;28;45388;-79
2022/11/04 05:46:50;;;;;;;;;0.00;0.00;;;;;13.14;68.63;99818.88;4987280;28;45306;-79
2022/11/04 05:49:16;;;;;;;;;0.00;0.00;;;;;13.14;68.41;99823.38;5004097;28;45619;-79
2022/11/04 05:51:42;;;;;;;;;0.25;0.25;;;;;13.11;68.82;99818.19;5002165;28;45342;-79
2022/11/04 05:54:08;;;;;;;;;0.00;0.00;;;;;13.09;68.67;99818.28;4986109;28;45308;-79
2022/11/04 05:56:33;;;;;;;;;2.00;0.00;;;;;13.10;68.72;99825.38;5000051;28;45514;-79
2022/11/04 05:58:59;;;;;;;;;1.25;0.25;;;;;13.07;68.26;99822.00;4988276;28;45577;-79
2022/11/04 06:01:28;;;;;;;;;2.50;0.00;;;;;13.06;68.50;99834.50;4994198;28;45511;-79
2022/11/04 06:03:54;;;;;;;;;1.50;0.00;;;;;13.24;68.30;99859.41;4981573;28;45481;-79
2022/11/04 06:06:21;;;;;;;;;0.25;0.25;;;;;13.20;68.56;99857.88;4980565;28;45531;-79
2022/11/04 06:08:47;;;;;;;;;0.00;0.00;;;;;13.21;68.46;99866.75;4997497;28;45441;-79
2022/11/04 06:11:12;;;;;;;;;0.00;0.00;;;;;13.28;68.82;99881.53;4989610;28;45367;-79
2022/11/04 06:13:38;;;;;;;;;1.75;0.00;;;;;13.29;68.54;99875.22;4995615;28;45433;-79
2022/11/04 06:16:03;;;;;;;;;1.00;1.00;;;;;13.08;68.69;99847.81;4992927;28;45336;-79
2022/11/04 06:18:28;;;;;;;;;0.00;0.00;;;;;13.26;68.27;99870.88;4995764;28;47312;-79
2022/11/04 06:21:18;;;;;;;;;3.00;0.75;;;;;13.07;68.50;99840.75;4987701;28;45501;-79
2022/11/04 06:23:44;;;;;;;;;1.00;1.00;;;;;13.27;68.72;99879.81;4993784;28;45489;-79
2022/11/04 06:26:11;;;;;;;;;2.00;0.00;;;;;13.32;68.57;99897.38;4992771;28;46641;-79
2022/11/04 06:28:37;;;;;;;;;1.25;0.75;;;;;13.13;68.34;99862.72;4986891;28;45373;-79
2022/11/04 06:31:04;;;;;;;;;1.00;0.00;;;;;13.08;68.22;99854.06;4996319;28;45317;-79
2022/11/04 06:33:33;;;;;;;;;2.00;0.50;;;;;13.21;68.94;99878.34;4984823;28;44894;-79
2022/11/04 06:36:00;;;;;;;;;1.50;1.50;;;;;13.22;68.34;99872.03;4988216;28;45554;-78
2022/11/04 06:38:27;;;;;;;;;1.00;1.00;;;;;13.19;68.45;99861.47;4993431;28;47062;-78
2022/11/04 06:40:53;;;;;;;;;3.00;0.00;;;;;13.17;68.44;99860.72;4997957;28;45409;-78
2022/11/04 06:43:18;;;;;;;;;2.75;0.75;;;;;13.21;68.30;99869.44;4985389;28;45321;-79
2022/11/04 06:45:43;;;;;;;;;1.00;1.00;;;;;13.35;68.79;99896.34;4998631;28;45541;-79
2022/11/04 06:48:09;;;;;;;;;0.50;0.50;;;;;13.27;68.38;99880.66;4997088;28;45681;-79
2022/11/04 06:50:34;;;;;;;;;2.00;0.50;;;;;13.16;68.33;99862.53;4987723;28;45706;-79
2022/11/04 06:53:00;;;;;;;;;1.25;0.00;;;;;13.30;68.17;99885.84;4987018;28;46927;-78
2022/11/04 06:55:25;;;;;;;;;2.75;2.00;;;;;13.13;68.05;99867.19;4999848;28;45443;-79
2022/11/04 06:57:51;;;;;;;;;1.75;1.75;;;;;13.12;68.23;99870.84;4984305;28;45490;-75
2022/11/04 07:06:54;;;;;;;;;1.00;1.00;;;;;13.05;68.43;99875.69;4987131;28;45475;-77
2022/11/04 07:09:23;;;;;;;;;0.75;0.50;;;;;13.13;68.25;99878.78;4990875;28;48159;-76
2022/11/04 07:11:49;;;;;;;;;2.25;1.00;;;;;13.29;67.87;99905.56;4995477;28;46527;-76
2022/11/04 07:14:19;;;;;;;;;2.00;1.00;;;;;12.97;68.32;99849.31;5009119;28;45516;-76
2022/11/04 07:16:49;;;;;;;;;1.75;1.00;;;;;13.27;68.26;99909.28;4982656;28;45468;-77
2022/11/04 07:19:14;;;;;;;;;2.00;0.00;;;;;13.24;68.08;99904.97;4994091;28;45544;-77
2022/11/04 07:21:39;;;;;;;;;0.00;0.00;;;;;13.38;68.22;99936.41;4997716;28;45250;-76
2022/11/04 07:24:06;;;;;;;;;2.50;2.50;;;;;13.40;68.37;99942.53;4984068;28;45382;-76
2022/11/04 07:26:31;;;;;;;;;0.25;0.25;;;;;13.42;68.04;99942.44;4998050;28;45807;-76
2022/11/04 07:28:58;;;;;;;;;1.00;1.00;;;;;13.39;68.05;99945.28;4996675;28;45574;-76
2022/11/04 07:31:24;;;;;;;;;1.25;0.75;;;;;13.38;68.35;99936.41;4981388;28;45369;-77
2022/11/04 07:33:50;;;;;;;;;0.00;0.00;;;;;13.23;68.05;99913.09;4990050;28;45604;-77
2022/11/04 07:36:16;;;;;;;;;1.00;1.00;;;;;13.44;68.21;99951.25;4991542;28;45381;-77
2022/11/04 07:38:41;;;;;;;;;2.25;1.00;;;;;13.38;68.42;99940.88;4991771;28;46215;-79
2022/11/04 07:41:07;;;;;;;;;4.75;1.50;;;;;13.41;67.92;99952.28;4990986;28;45436;-79
2022/11/04 07:43:32;;;;;;;;;2.00;2.00;;;;;13.43;67.93;99953.09;4987463;28;45498;-81
2022/11/04 07:46:02;;;;;;;;;1.00;0.00;;;;;13.28;67.87;99945.84;4986768;28;45554;-79
2022/11/04 07:48:27;;;;;;;;;0.00;0.00;;;;;13.49;67.97;99978.66;4984313;28;46583;-79
2022/11/04 07:50:58;;;;;;;;;2.00;0.00;;;;;13.24;67.53;99939.81;4982330;28;46583;-79
2022/11/04 07:53:25;;;;;;;;;2.50;0.50;;;;;13.42;67.68;99986.19;4986595;28;45485;-82
2022/11/04 07:55:51;;;;;;;;;1.00;0.50;;;;;13.29;67.98;99961.84;4983401;28;45504;-78
2022/11/04 07:58:18;;;;;;;;;1.00;1.00;;;;;13.43;67.89;99995.09;4994306;28;47104;-78
2022/11/04 08:00:44;;;;;;;;;0.50;0.50;;;;;13.35;67.86;99976.78;4986188;28;45601;-78
2022/11/04 08:03:09;;;;;;;;;1.50;0.00;;;;;13.30;67.55;99974.31;4991987;28;45701;-77
2022/11/04 08:05:34;;;;;;;;;0.00;0.00;;;;;13.29;67.72;99975.25;4991121;28;45978;-73
2022/11/04 08:08:02;;;;;;;;;1.00;1.00;;;;;13.25;67.85;99981.75;4984876;28;46483;-74
2022/11/04 08:10:30;;;;;;;;;2.25;0.00;;;;;13.13;67.98;99966.31;4993146;28;45424;-74
2022/11/04 08:12:58;;;;;;;;;0.50;0.50;;;;;13.22;67.79;99970.34;4993919;28;45463;-73
2022/11/04 08:15:23;;;;;;;;;2.00;0.00;;;;;13.21;67.60;99963.22;4990087;28;45518;-73
2022/11/04 08:17:52;;;;;;;;;1.00;0.00;;;;;13.63;67.52;100035.06;4981706;28;46900;-76
2022/11/04 08:20:29;;;;;;;;;1.00;0.00;;;;;13.27;67.66;99977.16;4983064;28;47156;-75
2022/11/04 08:23:11;;;;;;;;;1.00;0.00;;;;;13.41;67.51;99994.31;4985476;28;45580;-77
2022/11/04 08:29:53;;;;;;;;;1.00;0.00;;;;;13.39;66.93;99985.50;4966256;28;46472;-72
2022/11/04 08:32:41;;;;;;;;;2.75;1.50;;;;;13.43;67.13;99997.75;4948690;28;45522;-70
2022/11/04 08:35:46;;;;;;;;;;;;;;;;;;;;;
2022/11/04 08:39:21;;;;;;;;;;;;;;;;;;;;;
2022/11/04 09:15:57;;;;;;;;;0.00;0.00;;;;;13.78;65.27;100092.34;4714515;29;45480;-71
2022/11/04 09:18:22;;;;;;;;;0.00;0.00;;;;;13.91;65.64;100111.28;4806684;28;45761;-73
2022/11/04 09:20:47;;;;;;;;;0.75;0.75;;;;;13.99;65.00;100126.97;4974821;28;45759;-68
2022/11/04 09:23:13;;;;;;;;;0.00;0.00;;;;;13.98;64.95;100118.06;4979607;28;45310;-69
2022/11/04 09:25:41;;;;;;;;;0.00;0.00;;;;;13.95;65.08;100114.66;4996756;28;45489;-69
2022/11/04 09:28:07;;;;;;;;;0.25;0.25;;;;;13.91;64.95;100108.59;4984629;28;45458;-68
2022/11/04 09:30:32;;;;;;;;;0.50;0.00;;;;;14.07;65.17;100135.44;5002467;28;45659;-68
2022/11/04 09:32:58;;;;;;;;;0.50;0.00;;;;;13.92;65.20;100114.84;4992691;28;45687;-67
2022/11/04 09:35:23;;;;;;;;;0.00;0.00;;;;;14.01;64.78;100136.63;4992401;28;45974;-68
2022/11/04 09:37:49;;;;;;;;;1.00;0.75;;;;;14.09;64.57;100146.94;4986299;28;45509;-68
2022/11/04 09:40:18;;;;;;;;;0.50;0.00;;;;;13.89;64.75;100123.94;4989805;28;47264;-68
2022/11/04 09:42:54;;;;;;;;;0.00;0.00;;;;;14.10;65.01;100156.75;4997928;28;45399;-68
2022/11/04 09:45:25;;;;;;;;;1.00;0.00;;;;;13.94;64.45;100129.03;4989094;28;45644;-68
2022/11/04 09:47:58;;;;;;;;;3.00;0.75;;;;;14.02;64.58;100145.56;5007779;28;45465;-68
2022/11/04 09:50:29;;;;;;;;;0.00;0.00;;;;;14.04;64.75;100155.25;4987105;28;48377;-68
2022/11/04 09:53:01;;;;;;;;;0.00;0.00;;;;;14.12;64.74;100175.44;4979988;28;46039;-68
2022/11/04 09:55:39;;;;;;;;;2.50;0.00;;;;;13.93;65.03;100151.44;4996918;28;45457;-68
2022/11/04 09:58:08;;;;;;;;;2.00;0.00;;;;;13.99;65.32;100172.56;4992439;28;45399;-68
2022/11/04 10:00:38;;;;;;;;;2.00;1.00;;;;;13.86;65.76;100161.66;4990499;28;45730;-68
2022/11/04 10:03:22;;;;;;;;;0.00;0.00;;;;;14.05;65.79;100196.41;4987778;28;45656;-68
2022/11/04 10:05:57;;;;;;;;;1.00;1.00;;;;;14.03;65.64;100200.97;4996141;28;45485;-68
2022/11/04 10:09:03;;;;;;;;;1.00;1.00;;;;;14.02;65.59;100210.84;4991606;28;45854;-68
2022/11/04 10:11:34;;;;;;;;;0.00;0.00;;;;;13.99;65.71;100212.81;4991462;28;45528;-68
2022/11/04 10:14:21;;;;;;;;;0.75;0.75;;;;;13.80;65.74;100194.16;4982442;28;45712;-68
2022/11/04 10:17:09;;;;;;;;;1.00;1.00;;;;;13.82;65.62;100206.56;5001094;28;45476;-68
2022/11/04 10:20:11;;;;;;;;;1.00;0.50;;;;;13.63;65.53;100185.25;4987841;28;45594;-68
2022/11/04 10:22:51;;;;;;;;;1.00;1.00;;;;;13.92;65.62;100236.44;4986771;28;47739;-68
2022/11/04 10:25:59;;;;;;;;;2.50;0.75;;;;;13.87;65.63;100241.19;4990400;28;45752;-68
2022/11/04 10:28:42;;;;;;;;;1.00;0.25;;;;;13.85;65.89;100243.97;4927370;28;45592;-68
2022/11/04 10:31:16;;;;;;;;;1.00;1.00;;;;;13.79;65.88;100251.47;4986353;28;45665;-69
2022/11/04 10:33:47;;;;;;;;;1.00;1.00;;;;;13.76;65.25;100243.59;4991232;28;45548;-68
2022/11/04 10:36:15;;;;;;;;;1.00;1.00;;;;;13.77;65.58;100248.88;4988054;28;45709;-68
2022/11/04 10:38:54;;;;;;;;;3.00;2.00;;;;;13.73;65.19;100246.44;4991723;28;45652;-68
2022/11/04 10:41:23;;;;;;;;;2.00;1.00;;;;;13.80;64.98;100271.97;4992529;28;45424;-68
2022/11/04 10:44:20;;;;;;;;;1.00;1.00;;;;;13.95;65.09;100295.31;4991863;28;48117;-68
2022/11/04 10:46:58;;;;;;;;;4.50;2.00;;;;;13.96;65.51;100306.91;4986617;28;46472;-68
2022/11/04 10:49:41;;;;;;;;;1.25;1.00;;;;;13.79;65.11;100278.28;4997147;28;45759;-68
2022/11/04 10:52:08;;;;;;;;;3.00;1.00;;;;;13.99;65.23;100309.44;4985041;28;45635;-68
2022/11/04 10:54:48;;;;;;;;;0.00;0.00;;;;;13.80;65.08;100272.84;4992739;28;46522;-68
2022/11/04 10:57:23;;;;;;;;;1.00;1.00;;;;;13.97;64.92;100301.47;4991404;28;45422;-68
2022/11/04 10:59:58;;;;;;;;;1.00;1.00;;;;;14.02;65.05;100318.19;4989538;28;45466;-68
2022/11/04 11:02:36;;;;;;;;;0.50;0.50;;;;;14.03;64.29;100319.94;4982112;28;45436;-68
2022/11/04 11:05:22;;;;;;;;;0.75;0.75;;;;;14.02;64.39;100323.53;4978993;28;45668;-68
2022/11/04 11:07:51;;;;;;;;;0.00;0.00;;;;;13.99;64.25;100326.38;4986588;28;45829;-69
2022/11/04 11:10:19;;;;;;;;;0.25;0.25;;;;;14.02;64.09;100333.44;4988392;28;46458;-68
2022/11/04 11:12:51;;;;;;;;;0.00;0.00;;;;;13.87;64.31;100308.28;4994854;28;45536;-68
2022/11/04 11:15:23;;;;;;;;;0.75;0.75;;;;;14.06;64.15;100340.34;4981742;28;48051;-68
2022/11/04 11:17:51;;;;;;;;;3.00;0.50;;;;;13.90;63.79;100300.91;4992570;28;45573;-68
2022/11/04 11:20:17;;;;;;;;;1.00;1.00;;;;;14.04;63.45;100331.53;4983914;28;45404;-68
2022/11/04 11:22:47;;;;;;;;;2.25;1.00;;;;;14.06;63.04;100332.28;4984668;28;45372;-67
2022/11/04 11:25:29;;;;;;;;;2.00;2.00;;;;;13.88;63.36;100318.03;4983547;28;45615;-68
2022/11/04 11:28:02;;;;;;;;;4.00;1.50;;;;;14.03;63.53;100341.41;4991561;28;45891;-68
2022/11/04 11:30:52;;;;;;;;;1.75;1.00;;;;;14.07;63.68;100334.03;4990495;28;45391;-68
2022/11/04 11:33:23;;;;;;;;;0.75;0.25;;;;;13.94;63.64;100314.19;4987590;28;45835;-68
2022/11/04 11:36:15;;;;;;;;;2.00;2.00;;;;;13.99;63.96;100325.53;4990873;28;45840;-68
2022/11/04 11:39:48;;;;;;;;;1.00;0.25;;;;;14.11;63.71;100337.44;4981612;28;45800;-66
2022/11/04 11:41:49;;;;;;;;;1.00;1.00;;;;;14.24;63.46;100368.03;4971961;28;45439;-68
2022/11/04 11:44:24;;;;;;;;;0.25;0.25;;;;;14.07;62.89;100334.03;4978484;28;45551;-68
2022/11/04 11:47:17;;;;;;;;;3.00;3.00;;;;;14.14;62.97;100356.06;4978524;28;46668;-67
2022/11/04 11:49:43;;;;;;;;;1.00;0.00;;;;;13.96;63.17;100325.69;4997698;28;45353;-68
2022/11/04 11:52:33;;;;;;;;;1.00;1.00;;;;;14.27;62.91;100379.47;4982320;28;45480;-68
2022/11/04 11:55:33;;;;;;;;;2.00;0.25;;;;;14.01;62.61;100339.72;4977919;28;45567;-68
2022/11/04 11:58:17;;;;;;;;;1.00;0.00;;;;;14.33;62.78;100385.47;4998199;28;45629;-68
2022/11/04 12:01:05;;;;;;;;;0.00;0.00;;;;;14.17;62.92;100370.19;4988138;28;45327;-68
2022/11/04 12:03:48;;;;;;;;;0.75;0.75;;;;;14.22;62.67;100375.31;4984420;28;45695;-68
2022/11/04 12:06:24;;;;;;;;;1.00;1.00;;;;;14.39;62.53;100410.16;4997382;28;45425;-68
2022/11/04 12:08:58;;;;;;;;;0.00;0.00;;;;;14.39;62.24;100420.91;4985780;28;45540;-68
2022/11/04 12:11:56;;;;;;;;;0.00;0.00;;;;;14.39;61.95;100428.97;5004007;28;45423;-68
2022/11/04 12:15:07;;;;;;;;;1.00;1.00;;;;;14.25;62.48;100412.72;4994660;28;45587;-68
2022/11/04 12:17:52;;;;;;;;;0.00;0.00;;;;;14.09;62.41;100388.50;4993327;28;45266;-68
2022/11/04 12:20:43;;;;;;;;;;;;;;;;;;;;;
2022/11/04 12:23:52;;;;;;;;;2.00;0.00;;;;;14.14;62.78;100415.09;4985741;28;73310;-68
2022/11/04 12:26:35;;;;;;;;;0.25;0.25;;;;;14.38;63.37;100448.72;4980587;28;45312;-69
2022/11/04 12:36:11;;;;;;;;;1.25;1.00;;;;;14.36;63.61;100484.66;4995864;28;45550;-72
2022/11/04 12:38:52;;;;;;;;;4.25;1.00;;;;;14.36;63.57;100471.22;4984215;28;45483;-75
2022/11/04 12:42:01;;;;;;;;;1.00;1.00;;;;;14.31;63.20;100475.97;4987497;28;45386;-71
2022/11/04 12:44:54;;;;;;;;;1.00;1.00;;;;;14.33;63.39;100484.78;4997548;28;46109;-69
2022/11/04 12:48:26;;;;;;;;;1.00;1.00;;;;;14.15;62.84;100454.41;4989970;28;45542;-71
2022/11/04 12:51:12;;;;;;;;;1.00;1.00;;;;;14.18;62.45;100463.19;4984680;28;45412;-76
2022/11/04 12:54:24;;;;;;;;;1.00;1.00;;;;;14.35;62.45;100496.31;4993685;28;45538;-74
2022/11/04 12:57:22;;;;;;;;;;;;;;;;;;;;;
2022/11/04 13:00:01;;;;;;;;;0.75;0.75;;;;;14.54;62.20;100520.41;4985381;28;72996;-73
2022/11/04 13:02:52;;;;;;;;;2.00;1.00;;;;;14.39;61.89;100506.81;4980674;28;45470;-77
2022/11/04 13:12:15;;;;;;;;;1.75;1.00;;;;;14.52;61.82;100520.50;4985112;28;45616;-77
2022/11/04 13:14:59;;;;;;;;;;;;;;;;;;;;;
2022/11/04 13:17:39;;;;;;;;;1.75;1.75;;;;;14.61;61.83;100544.19;4970879;23;72294;-84
2022/11/04 13:20:35;;;;;;;;;1.25;1.25;;;;;14.61;61.75;100557.63;4960571;28;46612;-85
2022/11/04 13:23:07;;;;;;;;;1.50;1.00;;;;;14.59;61.91;100559.53;4956195;28;45682;-84
2022/11/04 13:25:46;;;;;;;;;2.00;1.00;;;;;14.56;61.92;100561.47;4957539;28;45720;-84
2022/11/04 13:28:15;;;;;;;;;5.50;3.00;;;;;14.60;62.25;100585.47;4954759;28;45816;-84
2022/11/04 13:31:03;;;;;;;;;2.00;2.00;;;;;14.62;62.37;100598.81;4958821;28;45647;-84
2022/11/04 13:34:01;;;;;;;;;2.50;2.50;;;;;14.60;62.63;100606.94;4953642;28;46642;-84